Time;durP1;ratioP1;P1;durP2;ratioP2;P2;SDS_P1;SDS_P2;PMS_P1;PMS_P2;Temp;Humidity;BMP_temperature;BMP_pressure;BME280_temperature;BME280_humidity;BME280_pressure;Samples;Min_cycle;Max_cycle;Signal;HPM_P1;HPM_P2
2021/12/20 00:01:24;;;;;;;25.88;11.15;;;;;;;5.19;100.00;102634.69;5272493;28;20074;-69
2021/12/20 00:03:55;;;;;;;22.90;10.85;;;;;;;5.20;100.00;102633.78;5274488;28;20024;-69
2021/12/20 00:06:26;;;;;;;22.77;9.75;;;;;;;5.18;100.00;102625.03;5271482;28;20525;-69
2021/12/20 00:08:58;;;;;;;21.95;9.63;;;;;;;5.18;100.00;102626.78;5267973;28;20522;-69
2021/12/20 00:11:29;;;;;;;23.15;8.48;;;;;;;5.18;100.00;102625.03;5270314;28;20043;-69
2021/12/20 00:14:00;;;;;;;22.98;8.30;;;;;;;5.16;100.00;102629.50;5259854;28;20024;-69
2021/12/20 00:16:31;;;;;;;18.75;8.80;;;;;;;5.21;100.00;102634.66;5263850;28;20031;-69
2021/12/20 00:19:03;;;;;;;22.95;8.43;;;;;;;5.18;100.00;102624.13;5262490;28;20551;-69
2021/12/20 00:21:35;;;;;;;21.23;8.23;;;;;;;5.16;100.00;102626.84;5263087;28;20418;-69
2021/12/20 00:24:07;;;;;;;21.45;8.10;;;;;;;5.17;100.00;102635.63;5260772;28;20033;-69
2021/12/20 00:26:38;;;;;;;18.70;7.47;;;;;;;5.19;100.00;102621.44;5268504;28;20799;-69
2021/12/20 00:29:09;;;;;;;19.88;7.90;;;;;;;5.18;100.00;102626.78;5267178;28;20032;-69
2021/12/20 00:31:40;;;;;;;15.57;7.50;;;;;;;5.18;100.00;102634.72;5270367;28;20043;-69
2021/12/20 00:34:12;;;;;;;20.67;7.93;;;;;;;5.15;100.00;102630.38;5265834;28;20116;-69
2021/12/20 00:36:43;;;;;;;21.35;7.75;;;;;;;5.17;100.00;102625.06;5269738;28;20041;-69
2021/12/20 00:42:04;;;;;;;22.85;8.55;;;;;;;5.14;100.00;102618.06;5269124;28;20044;-69
2021/12/20 00:44:36;;;;;;;17.55;7.18;;;;;;;5.16;100.00;102615.38;5268720;28;20028;-69
2021/12/20 00:47:07;;;;;;;19.95;7.82;;;;;;;5.15;100.00;102616.28;5270015;28;20024;-69
2021/12/20 00:49:38;;;;;;;20.52;7.20;;;;;;;5.12;100.00;102617.25;5264881;28;20043;-69
2021/12/20 00:52:10;;;;;;;18.90;6.57;;;;;;;5.13;100.00;102612.81;5262222;28;20501;-69
2021/12/20 00:54:41;;;;;;;16.95;6.97;;;;;;;5.11;100.00;102613.72;5266336;28;20035;-69
2021/12/20 00:57:12;;;;;;;18.85;6.55;;;;;;;5.10;100.00;102608.44;5264482;28;20823;-69
2021/12/20 00:59:43;;;;;;;18.63;7.13;;;;;;;5.14;100.00;102617.19;5262626;28;20055;-69
2021/12/20 01:02:15;;;;;;;17.75;6.60;;;;;;;5.13;100.00;102610.16;5262153;28;20103;-69
2021/12/20 01:04:47;;;;;;;12.27;5.75;;;;;;;5.10;100.00;102619.94;5273744;28;20048;-69
2021/12/20 01:07:18;;;;;;;15.18;5.45;;;;;;;5.08;100.00;102612.91;5275105;28;20074;-69
2021/12/20 01:09:49;;;;;;;15.95;4.38;;;;;;;5.12;100.00;102609.31;5272923;28;20036;-69
2021/12/20 01:12:21;;;;;;;14.32;4.35;;;;;;;5.09;100.00;102620.81;5275986;28;20097;-69
2021/12/20 01:14:58;;;;;;;17.33;4.03;;;;;;;5.04;100.00;102613.91;5268696;28;20039;-69
2021/12/20 01:17:30;;;;;;;14.18;3.78;;;;;;;5.01;100.00;102622.78;5267672;28;20039;-69
2021/12/20 01:20:01;;;;;;;17.13;3.65;;;;;;;5.02;100.00;102623.66;5272827;28;20036;-69
2021/12/20 01:22:33;;;;;;;15.25;3.50;;;;;;;4.98;100.00;102619.34;5264993;28;20108;-69
2021/12/20 01:25:04;;;;;;;18.67;3.90;;;;;;;5.01;100.00;102617.50;5271144;28;20032;-69
2021/12/20 01:27:36;;;;;;;14.02;3.20;;;;;;;4.96;100.00;102629.09;5264744;28;20039;-69
2021/12/20 01:30:10;;;;;;;15.73;3.20;;;;;;;5.01;100.00;102617.50;5270797;28;20927;-69
2021/12/20 01:32:41;;;;;;;17.10;3.33;;;;;;;5.01;100.00;102612.22;5267676;28;20094;-69
2021/12/20 01:35:14;;;;;;;15.40;3.10;;;;;;;4.95;100.00;102620.31;5269480;28;20028;-69
2021/12/20 01:37:45;;;;;;;15.70;2.92;;;;;;;4.92;100.00;102612.44;5268670;28;20497;-69
2021/12/20 01:40:18;;;;;;;14.88;2.75;;;;;;;4.92;100.00;102612.44;5270279;28;20470;-69
2021/12/20 01:42:55;;;;;;;15.65;3.03;;;;;;;4.94;100.00;102617.69;5270036;28;20027;-69
2021/12/20 01:45:28;;;;;;;12.07;2.83;;;;;;;4.96;100.00;102611.44;5272777;28;20719;-69
2021/12/20 01:48:04;;;;;;;14.32;3.25;;;;;;;4.96;100.00;102606.16;5271247;28;20060;-69
2021/12/20 01:53:21;;;;;;;19.90;3.17;;;;;;;4.91;100.00;102608.91;5267717;28;20041;-69
2021/12/20 01:55:55;;;;;;;14.98;3.53;;;;;;;4.91;100.00;102614.22;5268867;28;20063;-69
2021/12/20 01:58:28;;;;;;;15.52;2.90;;;;;;;4.90;100.00;102623.03;5268965;28;20152;-69
2021/12/20 02:03:41;;;;;;;15.05;2.83;;;;;;;4.89;100.00;102613.38;5265204;28;20041;-69
2021/12/20 02:06:25;;;;;;;17.73;3.00;;;;;;;4.84;100.00;102606.47;5267518;28;20020;-69
2021/12/20 02:08:59;;;;;;;14.85;3.30;;;;;;;4.89;100.00;102601.94;5268182;28;20053;-69
2021/12/20 02:11:30;;;;;;;21.50;2.97;;;;;;;4.78;100.00;102594.25;5269069;28;20360;-69
2021/12/20 02:14:02;;;;;;;18.92;3.13;;;;;;;4.76;100.00;102604.00;5264338;28;20035;-69
2021/12/20 02:16:34;;;;;;;18.67;3.25;;;;;;;4.75;100.00;102610.19;5272924;28;20133;-69
2021/12/20 02:19:13;;;;;;;22.02;3.05;;;;;;;4.78;100.00;102601.34;5266906;28;20183;-69
2021/12/20 02:21:45;;;;;;;16.48;3.20;;;;;;;4.76;100.00;102600.50;5264976;28;20055;-69
2021/12/20 02:24:16;;;;;;;17.60;2.75;;;;;;;4.76;100.00;102603.16;5272330;28;20378;-69
2021/12/20 02:26:49;;;;;;;16.38;3.03;;;;;;;4.77;100.00;102596.94;5264309;28;20029;-69
2021/12/20 02:29:27;;;;;;;17.30;2.70;;;;;;;4.76;100.00;102596.06;5261923;28;20020;-69
2021/12/20 02:37:38;;;;;;;14.65;2.53;;;;;;;4.85;100.00;102595.84;5273620;28;20044;-69
2021/12/20 02:40:10;;;;;;;15.80;3.00;;;;;;;4.89;100.00;102586.94;5269886;28;20028;-69
2021/12/20 02:42:42;;;;;;;18.63;3.03;;;;;;;4.84;100.00;102591.47;5264726;28;20029;-69
2021/12/20 02:45:15;;;;;;;15.75;2.45;;;;;;;4.90;100.00;102598.38;5259066;28;20032;-69
2021/12/20 02:47:47;;;;;;;22.13;3.15;;;;;;;4.86;100.00;102602.88;5268934;28;21533;-69
2021/12/20 02:50:18;;;;;;;21.67;3.15;;;;;;;4.85;100.00;102595.84;5265585;28;20024;-69
2021/12/20 02:52:50;;;;;;;16.08;3.10;;;;;;;4.89;100.00;102597.50;5269250;28;20032;-69
2021/12/20 02:55:21;;;;;;;20.05;3.22;;;;;;;4.86;100.00;102599.34;5267003;28;20025;-69
2021/12/20 02:57:52;;;;;;;20.90;3.45;;;;;;;4.87;100.00;102591.41;5268158;28;20119;-69
2021/12/20 03:00:23;;;;;;;19.75;3.33;;;;;;;4.93;100.00;102594.78;5264771;28;20043;-70
2021/12/20 03:02:55;;;;;;;16.80;2.80;;;;;;;4.89;100.00;102588.72;5268379;28;20036;-69
2021/12/20 03:05:26;;;;;;;18.95;2.85;;;;;;;4.88;100.00;102594.91;5263553;28;20020;-69
2021/12/20 03:07:58;;;;;;;19.70;2.90;;;;;;;4.85;100.00;102594.97;5271680;28;20044;-69
2021/12/20 03:10:31;;;;;;;16.30;2.90;;;;;;;4.83;100.00;102589.75;5266347;28;20371;-69
2021/12/20 03:13:02;;;;;;;18.20;2.85;;;;;;;4.83;100.00;102589.75;5271439;28;20115;-69
2021/12/20 03:15:33;;;;;;;16.45;3.05;;;;;;;4.89;100.00;102608.09;5265995;28;20569;-69
2021/12/20 03:18:05;;;;;;;22.20;3.20;;;;;;;4.85;100.00;102601.16;5268024;28;20545;-69
2021/12/20 03:20:36;;;;;;;19.40;3.70;;;;;;;4.84;100.00;102593.25;5267480;28;20056;-69
2021/12/20 03:23:07;;;;;;;22.48;3.28;;;;;;;4.84;100.00;102580.03;5265117;28;20347;-69
2021/12/20 03:25:39;;;;;;;16.55;2.97;;;;;;;4.85;100.00;102585.28;5260215;28;20485;-70
2021/12/20 03:28:10;;;;;;;16.00;2.95;;;;;;;4.94;100.00;102580.66;5264414;28;20511;-69
2021/12/20 03:30:41;;;;;;;18.98;3.28;;;;;;;4.98;100.00;102584.97;5255798;28;20043;-69
2021/12/20 03:33:13;;;;;;;16.90;3.28;;;;;;;4.89;100.00;102589.59;5256795;28;20498;-69
2021/12/20 03:35:44;;;;;;;20.55;3.53;;;;;;;4.96;100.00;102592.06;5257342;28;20112;-69
2021/12/20 03:38:15;;;;;;;22.38;3.67;;;;;;;4.92;100.00;102593.91;5254167;28;20032;-69
2021/12/20 03:40:46;;;;;;;20.20;3.28;;;;;;;4.91;100.00;102595.69;5263990;28;20036;-69
2021/12/20 03:43:18;;;;;;;18.55;2.85;;;;;;;4.91;100.00;102597.47;5253269;28;20067;-69
2021/12/20 03:45:56;;;;;;;17.77;3.10;;;;;;;4.88;100.00;102606.34;5253211;28;20024;-70
2021/12/20 03:48:28;;;;;;;21.80;3.03;;;;;;;4.88;100.00;102598.41;5262273;28;20470;-69
2021/12/20 03:51:01;;;;;;;20.10;2.72;;;;;;;4.89;100.00;102597.50;5258872;28;20043;-69
2021/12/20 03:53:34;;;;;;;16.08;3.00;;;;;;;4.88;100.00;102600.19;5269708;28;20024;-69
2021/12/20 03:56:06;;;;;;;17.90;3.00;;;;;;;4.89;100.00;102594.88;5255514;28;20041;-69
2021/12/20 03:58:38;;;;;;;20.35;3.97;;;;;;;4.88;100.00;102590.47;5260893;28;20055;-69
2021/12/20 04:01:12;;;;;;;21.38;4.43;;;;;;;4.92;100.00;102588.63;5254887;28;20032;-69
2021/12/20 04:03:43;;;;;;;23.17;3.30;;;;;;;4.89;100.00;102594.88;5259222;28;20036;-69
2021/12/20 04:06:14;;;;;;;20.85;3.78;;;;;;;4.93;100.00;102594.78;5255900;28;20889;-69
2021/12/20 04:08:47;;;;;;;23.85;3.58;;;;;;;4.85;100.00;102587.91;5263575;28;20048;-69
2021/12/20 04:11:19;;;;;;;22.77;3.08;;;;;;;4.88;100.00;102594.91;5267073;28;20135;-69
2021/12/20 04:13:51;;;;;;;20.52;3.25;;;;;;;4.86;100.00;102591.44;5262381;28;20040;-69
2021/12/20 04:16:22;;;;;;;22.35;3.35;;;;;;;4.84;100.00;102583.53;5253829;28;20512;-69
2021/12/20 04:18:53;;;;;;;20.92;3.70;;;;;;;4.83;100.00;102588.84;5263213;28;20090;-70
2021/12/20 04:21:25;;;;;;;18.30;3.17;;;;;;;4.81;100.00;102588.00;5257774;28;20033;-70
2021/12/20 04:23:57;;;;;;;18.50;3.65;;;;;;;4.78;100.00;102588.09;5259571;28;20075;-69
2021/12/20 04:26:28;;;;;;;21.38;3.17;;;;;;;4.78;100.00;102594.25;5264357;28;20329;-69
2021/12/20 04:28:59;;;;;;;21.02;3.88;;;;;;;4.90;100.00;102595.72;5264450;28;20493;-69
2021/12/20 04:31:32;;;;;;;17.25;3.13;;;;;;;4.81;100.00;102599.44;5251958;28;20032;-69
2021/12/20 04:34:04;;;;;;;17.95;3.00;;;;;;;4.80;100.00;102584.50;5262412;28;20033;-69
2021/12/20 04:36:35;;;;;;;19.88;3.50;;;;;;;4.82;100.00;102592.41;5261992;28;20471;-70
2021/12/20 04:39:12;;;;;;;22.02;3.22;;;;;;;4.83;100.00;102591.50;5260291;28;20615;-69
2021/12/20 04:41:44;;;;;;;22.00;3.92;;;;;;;4.83;100.00;102587.09;5257659;28;20508;-70
2021/12/20 04:44:15;;;;;;;15.82;2.88;;;;;;;4.81;100.00;102588.88;5259245;28;20029;-69
2021/12/20 04:46:46;;;;;;;23.25;3.15;;;;;;;4.80;100.00;102587.16;5256978;28;20478;-69
2021/12/20 04:49:17;;;;;;;20.15;3.40;;;;;;;4.83;100.00;102589.75;5261461;28;21346;-69
2021/12/20 04:51:49;;;;;;;19.65;3.03;;;;;;;4.78;100.00;102588.97;5268831;28;20029;-69
2021/12/20 04:54:21;;;;;;;27.38;3.92;;;;;;;4.78;100.00;102596.91;5258275;28;20105;-69
2021/12/20 04:56:52;;;;;;;16.02;3.58;;;;;;;4.78;100.00;102593.41;5264271;28;20111;-69
2021/12/20 04:59:24;;;;;;;19.30;3.72;;;;;;;4.74;100.00;102584.66;5253600;28;20039;-69
2021/12/20 05:01:55;;;;;;;16.52;3.47;;;;;;;4.77;100.00;102589.00;5256024;28;20032;-69
2021/12/20 05:04:26;;;;;;;25.38;3.53;;;;;;;4.78;98.93;102588.97;5263402;28;20028;-69
2021/12/20 05:06:57;;;;;;;12.95;3.10;;;;;;;4.83;100.00;102587.09;5261238;28;20032;-69
2021/12/20 05:09:36;;;;;;;23.90;4.45;;;;;;;4.80;96.95;102584.50;5268670;28;20028;-69
2021/12/20 05:12:12;;;;;;;25.35;4.53;;;;;;;4.79;97.57;102587.19;5253575;28;20028;-69
2021/12/20 05:14:44;;;;;;;24.88;3.15;;;;;;;4.76;96.48;102589.91;5258307;28;20425;-69
2021/12/20 05:17:15;;;;;;;20.63;3.65;;;;;;;4.72;96.36;102600.56;5258388;28;20035;-69
2021/12/20 05:19:47;;;;;;;15.35;3.00;;;;;;;4.83;99.96;102599.41;5259711;28;20086;-69
2021/12/20 05:22:18;;;;;;;26.42;3.83;;;;;;;4.76;96.76;102596.06;5251564;28;20563;-69
2021/12/20 05:24:49;;;;;;;21.67;3.85;;;;;;;4.74;99.24;102602.28;5252464;28;20028;-69
2021/12/20 05:27:20;;;;;;;22.02;3.35;;;;;;;4.71;96.93;102604.09;5257840;28;20024;-69
2021/12/20 05:29:52;;;;;;;15.88;3.25;;;;;;;4.72;96.38;102605.00;5265523;28;20032;-69
2021/12/20 05:32:23;;;;;;;22.40;3.95;;;;;;;4.73;96.48;102604.06;5254682;28;20024;-69
2021/12/20 05:34:55;;;;;;;18.88;3.60;;;;;;;4.73;95.47;102590.84;5267601;28;20029;-69
2021/12/20 05:37:26;;;;;;;23.15;3.47;;;;;;;4.74;93.80;102599.63;5258018;28;20036;-69
2021/12/20 05:39:57;;;;;;;16.58;3.10;;;;;;;4.70;95.29;102598.88;5260165;28;20038;-69
2021/12/20 05:42:29;;;;;;;21.42;2.90;;;;;;;4.73;95.99;102604.06;5263079;28;20451;-70
2021/12/20 05:45:00;;;;;;;17.45;3.25;;;;;;;4.74;93.28;102597.88;5266331;28;20375;-69
2021/12/20 05:47:31;;;;;;;17.27;3.53;;;;;;;4.72;93.31;102600.56;5257670;28;20071;-69
2021/12/20 05:50:04;;;;;;;21.70;3.97;;;;;;;4.68;94.77;102596.25;5256125;28;20032;-69
2021/12/20 05:52:36;;;;;;;22.02;3.95;;;;;;;4.71;93.27;102597.94;5265846;28;20036;-70
2021/12/20 05:55:08;;;;;;;21.25;4.07;;;;;;;4.68;94.05;102598.03;5256322;28;20535;-69
2021/12/20 05:57:40;;;;;;;19.05;3.58;;;;;;;4.78;96.97;102610.13;5260129;28;20033;-69
2021/12/20 06:00:15;;;;;;;25.48;3.33;;;;;;;4.68;97.39;102605.97;5262188;28;20035;-69
2021/12/20 06:02:49;;;;;;;16.38;3.63;;;;;;;4.73;98.32;102604.06;5263800;28;20028;-69
2021/12/20 06:05:21;;;;;;;21.42;3.53;;;;;;;4.70;95.55;102599.72;5259385;28;20055;-69
2021/12/20 06:07:52;;;;;;;21.25;3.17;;;;;;;4.68;96.27;102603.31;5261728;28;20044;-69
2021/12/20 06:10:24;;;;;;;16.33;3.15;;;;;;;4.79;98.63;102600.41;5259649;28;20111;-69
2021/12/20 06:12:55;;;;;;;22.65;2.88;;;;;;;4.80;97.84;102610.97;5255275;28;20036;-69
2021/12/20 06:15:26;;;;;;;22.83;3.72;;;;;;;4.69;95.64;102605.91;5260034;28;20040;-69
2021/12/20 06:17:58;;;;;;;20.27;3.75;;;;;;;4.76;98.29;102606.66;5256748;28;20039;-69
2021/12/20 06:20:29;;;;;;;21.15;4.10;;;;;;;4.70;94.67;102606.81;5257642;28;20509;-69
2021/12/20 06:23:00;;;;;;;22.83;3.63;;;;;;;4.69;93.49;102613.84;5254960;28;20048;-69
2021/12/20 06:25:32;;;;;;;18.05;3.72;;;;;;;4.68;94.95;102619.19;5258049;28;20047;-69
2021/12/20 06:28:03;;;;;;;17.17;4.63;;;;;;;4.67;93.23;102615.66;5252353;28;20553;-69
2021/12/20 06:30:35;;;;;;;25.92;3.40;;;;;;;4.69;91.27;102615.63;5258395;28;20176;-70
2021/12/20 06:33:06;;;;;;;25.88;3.72;;;;;;;4.71;93.49;102605.88;5256598;28;20064;-70
2021/12/20 06:35:38;;;;;;;21.77;3.90;;;;;;;4.73;92.47;102622.56;5256549;28;20501;-69
2021/12/20 06:38:11;;;;;;;20.35;3.60;;;;;;;4.76;93.12;102609.28;5257403;28;20501;-69
2021/12/20 06:40:43;;;;;;;24.40;5.57;;;;;;;4.79;95.75;102619.78;5256039;28;20032;-69
2021/12/20 06:43:14;;;;;;;22.50;3.55;;;;;;;4.78;92.98;102623.34;5256307;28;21619;-69
2021/12/20 06:45:47;;;;;;;22.33;3.50;;;;;;;4.71;92.78;102622.59;5258486;28;20371;-69
2021/12/20 06:48:18;;;;;;;22.45;3.85;;;;;;;4.74;97.45;102623.44;5267859;28;20224;-69
2021/12/20 06:50:49;;;;;;;26.33;4.00;;;;;;;4.83;96.72;102625.88;5273085;28;20024;-69
2021/12/20 06:53:21;;;;;;;15.38;3.80;;;;;;;4.79;96.80;102627.72;5260357;28;20514;-69
2021/12/20 06:55:52;;;;;;;15.80;3.53;;;;;;;4.76;96.43;102629.59;5265493;28;20497;-69
2021/12/20 06:58:23;;;;;;;18.13;3.38;;;;;;;4.69;93.47;102629.69;5267775;28;20040;-69
2021/12/20 07:00:55;;;;;;;18.92;3.55;;;;;;;4.68;98.62;102630.63;5261293;28;20039;-69
2021/12/20 07:03:26;;;;;;;22.80;4.00;;;;;;;4.70;92.67;102636.75;5260689;28;20059;-70
2021/12/20 07:05:57;;;;;;;20.02;4.25;;;;;;;4.72;94.12;102639.34;5268086;28;20070;-70
2021/12/20 07:08:29;;;;;;;34.60;6.10;;;;;;;4.65;94.21;102641.25;5266462;28;20168;-70
2021/12/20 07:11:00;;;;;;;20.58;3.53;;;;;;;4.65;93.43;102641.25;5269519;28;20689;-69
2021/12/20 07:13:31;;;;;;;16.98;3.38;;;;;;;4.64;93.20;102646.56;5267409;28;20020;-69
2021/12/20 07:16:03;;;;;;;18.92;3.28;;;;;;;4.67;94.53;102644.72;5258874;28;20028;-69
2021/12/20 07:18:35;;;;;;;17.75;3.42;;;;;;;4.68;93.88;102640.34;5259200;28;20032;-70
2021/12/20 07:21:07;;;;;;;21.58;3.60;;;;;;;4.65;90.59;102643.03;5264130;28;20039;-70
2021/12/20 07:23:38;;;;;;;21.80;3.60;;;;;;;4.66;91.97;102634.19;5263247;28;20024;-70
2021/12/20 07:26:11;;;;;;;21.35;3.88;;;;;;;4.67;92.50;102641.22;5268563;28;20036;-70
2021/12/20 07:28:44;;;;;;;20.10;3.40;;;;;;;4.68;91.82;102651.78;5263136;28;20490;-70
2021/12/20 07:31:15;;;;;;;17.08;3.40;;;;;;;4.62;95.79;102645.75;5264086;28;20111;-70
2021/12/20 07:33:47;;;;;;;20.15;3.50;;;;;;;4.63;93.33;102644.84;5267011;28;20505;-70
2021/12/20 07:36:21;;;;;;;16.90;2.95;;;;;;;4.66;92.17;102644.75;5265451;28;20677;-70
2021/12/20 07:38:52;;;;;;;23.73;4.30;;;;;;;4.70;92.36;102642.03;5264511;28;20032;-69
2021/12/20 07:41:23;;;;;;;20.85;3.42;;;;;;;4.62;92.91;102644.00;5260638;28;20134;-70
2021/12/20 07:43:55;;;;;;;17.10;3.58;;;;;;;4.72;93.62;102642.88;5265281;28;20067;-70
2021/12/20 07:46:26;;;;;;;17.73;3.60;;;;;;;4.68;94.63;102651.78;5269140;28;20462;-69
2021/12/20 07:48:58;;;;;;;22.90;3.90;;;;;;;4.72;97.79;102649.94;5268054;28;20024;-70
2021/12/20 07:51:30;;;;;;;22.95;3.88;;;;;;;4.66;95.30;102644.75;5272360;28;20059;-70
2021/12/20 07:54:01;;;;;;;16.52;3.42;;;;;;;4.65;97.56;102650.97;5267714;28;20139;-70
2021/12/20 07:56:32;;;;;;;20.90;3.60;;;;;;;4.64;95.13;102654.50;5270910;28;20111;-70
2021/12/20 07:59:04;;;;;;;20.45;3.45;;;;;;;4.76;96.38;102648.09;5271355;28;20036;-69
2021/12/20 08:01:35;;;;;;;19.85;4.07;;;;;;;4.69;95.87;102661.44;5268489;28;20033;-70
2021/12/20 08:04:07;;;;;;;19.13;3.55;;;;;;;4.81;98.30;102654.13;5270057;28;20028;-70
2021/12/20 08:06:39;;;;;;;27.70;3.83;;;;;;;4.74;98.41;102657.81;5271849;28;20131;-70
2021/12/20 08:09:11;;;;;;;17.55;3.67;;;;;;;4.72;98.99;102657.88;5265523;28;20049;-69
2021/12/20 08:11:44;;;;;;;15.00;3.25;;;;;;;4.80;96.80;102655.91;5267831;28;20397;-70
2021/12/20 08:14:15;;;;;;;23.70;5.30;;;;;;;4.72;94.40;102668.44;5270100;28;20500;-69
2021/12/20 08:16:47;;;;;;;18.55;4.03;;;;;;;4.74;94.55;102663.09;5267411;28;20111;-70
2021/12/20 08:19:18;;;;;;;17.00;3.50;;;;;;;4.73;94.14;102656.94;5267926;28;20818;-70
2021/12/20 08:21:49;;;;;;;17.65;4.07;;;;;;;4.72;94.61;102664.03;5269929;28;20036;-70
2021/12/20 08:24:20;;;;;;;15.55;3.67;;;;;;;4.79;94.68;102664.72;5263695;28;20024;-70
2021/12/20 08:26:52;;;;;;;21.00;4.28;;;;;;;4.78;97.60;102665.66;5271287;28;20032;-70
2021/12/20 08:29:24;;;;;;;18.95;3.67;;;;;;;4.86;96.23;102668.97;5266886;28;20115;-70
2021/12/20 08:31:56;;;;;;;20.73;4.25;;;;;;;4.91;95.77;102677.69;5266067;28;20517;-70
2021/12/20 08:34:30;;;;;;;17.80;3.40;;;;;;;4.89;95.64;102666.28;5266185;28;20032;-70
2021/12/20 08:37:02;;;;;;;18.52;3.80;;;;;;;4.82;93.63;102664.69;5265081;28;20033;-70
2021/12/20 08:39:34;;;;;;;18.67;3.80;;;;;;;4.82;95.99;102661.16;5268007;28;20332;-70
2021/12/20 08:42:05;;;;;;;16.50;3.67;;;;;;;4.81;95.09;102662.91;5270200;28;20474;-70
2021/12/20 08:44:37;;;;;;;23.27;3.15;;;;;;;4.86;95.04;102670.78;5269799;28;20052;-70
2021/12/20 08:47:08;;;;;;;15.38;3.47;;;;;;;4.90;97.30;102670.66;5260334;28;20040;-70
2021/12/20 08:49:40;;;;;;;19.50;4.88;;;;;;;4.88;96.08;102674.25;5269739;28;20032;-70
2021/12/20 08:52:12;;;;;;;19.58;3.10;;;;;;;4.90;94.62;102677.72;5264405;28;20036;-70
2021/12/20 08:54:44;;;;;;;18.48;3.50;;;;;;;4.97;94.07;102674.03;5258684;28;20025;-69
2021/12/20 08:57:15;;;;;;;17.05;4.22;;;;;;;4.95;91.39;102667.03;5267398;28;20036;-69
2021/12/20 08:59:46;;;;;;;18.48;3.10;;;;;;;4.97;86.79;102665.25;5268154;28;20021;-70
2021/12/20 09:02:18;;;;;;;15.70;2.70;;;;;;;4.97;85.71;102665.25;5265454;28;20039;-70
2021/12/20 09:04:49;;;;;;;14.10;2.55;;;;;;;4.99;88.28;102666.06;5268095;28;20502;-70
2021/12/20 09:07:20;;;;;;;14.38;2.80;;;;;;;5.01;86.43;102666.91;5271642;28;20517;-70
2021/12/20 09:09:51;;;;;;;11.15;2.30;;;;;;;5.04;86.89;102672.09;5267550;28;20040;-70
2021/12/20 09:12:23;;;;;;;13.48;2.30;;;;;;;5.04;85.21;102670.34;5262060;28;20090;-70
2021/12/20 09:14:54;;;;;;;15.05;2.60;;;;;;;5.07;86.90;102675.53;5262030;28;20079;-69
2021/12/20 09:17:25;;;;;;;17.52;3.28;;;;;;;5.17;87.60;102678.84;5263569;28;20459;-70
2021/12/20 09:19:57;;;;;;;17.25;3.47;;;;;;;5.17;88.37;102680.63;5267493;28;20158;-69
2021/12/20 09:22:30;;;;;;;16.30;3.35;;;;;;;5.19;86.40;102689.38;5270718;28;20039;-69
2021/12/20 09:25:01;;;;;;;18.15;3.17;;;;;;;5.20;86.34;102692.00;5276646;28;20028;-69
2021/12/20 09:27:33;;;;;;;17.73;3.13;;;;;;;5.21;85.43;102685.78;5268351;28;20809;-70
2021/12/20 09:30:04;;;;;;;19.30;3.60;;;;;;;5.24;86.89;102676.94;5269070;28;20090;-70
2021/12/20 09:32:36;;;;;;;16.13;2.90;;;;;;;5.26;87.38;102678.63;5262080;28;20024;-70
2021/12/20 09:35:08;;;;;;;12.93;3.03;;;;;;;5.32;90.10;102687.31;5264393;28;20035;-70
2021/12/20 09:37:39;;;;;;;20.10;3.20;;;;;;;5.35;84.83;102690.78;5263466;28;20095;-70
2021/12/20 09:40:13;;;;;;;12.40;2.50;;;;;;;5.35;83.02;102682.81;5261971;28;20028;-70
2021/12/20 09:42:51;;;;;;;14.98;3.00;;;;;;;5.40;85.09;102682.69;5260352;28;20043;-70
2021/12/20 09:45:23;;;;;;;12.93;2.95;;;;;;;5.40;85.08;102696.78;5267310;28;20030;-70
2021/12/20 09:47:54;;;;;;;16.25;2.95;;;;;;;5.40;82.75;102698.59;5270538;28;20056;-70
2021/12/20 09:50:26;;;;;;;17.73;3.47;;;;;;;5.45;90.55;102700.22;5264326;28;20114;-70
2021/12/20 09:53:03;;;;;;;17.60;3.92;;;;;;;5.54;86.98;102695.56;5267959;28;20117;-70
2021/12/20 09:55:36;;;;;;;19.70;3.13;;;;;;;5.52;85.59;102708.84;5264725;28;20446;-70
2021/12/20 09:58:07;;;;;;;18.10;3.58;;;;;;;5.50;84.49;102708.03;5262540;28;20032;-70
2021/12/20 10:00:39;;;;;;;20.17;4.15;;;;;;;5.49;87.10;102704.50;5263090;28;20036;-70
2021/12/20 10:03:13;;;;;;;17.38;3.10;;;;;;;5.55;87.20;102699.97;5266968;28;20021;-70
2021/12/20 10:05:44;;;;;;;17.50;3.67;;;;;;;5.57;88.94;102695.50;5261623;28;20036;-70
2021/12/20 10:08:26;;;;;;;18.95;3.25;;;;;;;5.57;89.08;102698.16;5265462;28;20052;-70
2021/12/20 10:11:00;;;;;;;12.70;3.28;;;;;;;5.58;85.50;102706.06;5262738;28;20168;-70
2021/12/20 10:13:37;;;;;;;18.27;3.63;;;;;;;5.69;89.78;102695.19;5259981;28;20440;-70
2021/12/20 10:16:18;;;;;;;19.48;3.40;;;;;;;5.76;88.74;102698.56;5265753;28;20196;-70
2021/12/20 10:18:49;;;;;;;12.30;2.70;;;;;;;5.84;89.04;102699.22;5265647;28;20557;-70
2021/12/20 10:21:33;;;;;;;15.13;3.13;;;;;;;5.83;90.32;102708.94;5257995;28;20035;-70
2021/12/20 10:24:05;;;;;;;14.48;3.00;;;;;;;5.81;86.46;102701.94;5262232;28;20086;-70
2021/12/20 10:26:39;;;;;;;15.95;3.75;;;;;;;5.83;85.61;102711.59;5262114;28;20037;-70
2021/12/20 10:29:18;;;;;;;19.52;3.83;;;;;;;5.94;87.25;102697.19;5261625;28;20058;-70
2021/12/20 10:31:51;;;;;;;18.08;3.58;;;;;;;5.89;88.21;102700.81;5262043;28;20374;-70
2021/12/20 10:34:33;;;;;;;13.18;3.10;;;;;;;5.97;86.00;102695.34;5267986;28;20051;-70
2021/12/20 10:37:05;;;;;;;13.52;3.00;;;;;;;5.96;87.49;102698.03;5267916;28;20025;-70
2021/12/20 10:39:43;;;;;;;15.73;3.50;;;;;;;5.88;83.27;102706.16;5260856;28;20036;-70
2021/12/20 10:42:16;;;;;;;15.68;3.05;;;;;;;5.85;83.13;102706.25;5265363;28;20052;-70
2021/12/20 10:45:10;;;;;;;14.90;3.10;;;;;;;5.85;83.75;102711.56;5267645;28;20085;-70
2021/12/20 10:47:43;;;;;;;18.08;3.50;;;;;;;5.83;84.45;102711.59;5267204;28;20393;-70
2021/12/20 10:50:24;;;;;;;17.02;3.33;;;;;;;5.84;85.20;102701.84;5266852;28;20057;-70
2021/12/20 10:53:16;;;;;;;16.17;3.42;;;;;;;5.86;84.45;102706.19;5265164;28;20036;-70
2021/12/20 10:55:59;;;;;;;17.27;3.55;;;;;;;5.83;83.75;102698.34;5265494;28;21097;-70
2021/12/20 10:58:37;;;;;;;13.45;3.30;;;;;;;5.83;83.99;102693.06;5265916;28;20059;-70
2021/12/20 11:01:56;;;;;;;16.02;3.35;;;;;;;5.89;85.62;102698.19;5266673;28;20511;-70
2021/12/20 11:04:34;;;;;;;15.05;3.15;;;;;;;5.90;85.83;102693.75;5271252;28;20119;-70
2021/12/20 11:09:45;;;;;;;17.88;3.97;;;;;;;6.01;85.45;102696.13;5272160;28;20470;-70
2021/12/20 11:12:22;;;;;;;13.50;3.22;;;;;;;5.95;85.79;102689.22;5259582;28;20041;-70
2021/12/20 11:14:59;;;;;;;21.70;3.65;;;;;;;5.97;87.07;102694.50;5260367;28;20593;-70
2021/12/20 11:17:30;;;;;;;16.00;3.90;;;;;;;5.96;84.48;102690.09;5265478;28;20028;-70
2021/12/20 11:20:02;;;;;;;15.57;3.47;;;;;;;5.96;86.01;102695.38;5263933;28;20051;-70
2021/12/20 11:22:34;;;;;;;18.40;4.25;;;;;;;5.96;85.09;102677.69;5267458;28;20107;-70
2021/12/20 11:25:11;;;;;;;14.15;3.42;;;;;;;6.03;85.44;102687.22;5268991;28;20035;-70
2021/12/20 11:27:46;;;;;;;15.73;3.50;;;;;;;6.09;87.08;102687.06;5270909;28;20443;-70
2021/12/20 11:30:26;;;;;;;17.95;3.47;;;;;;;6.16;88.68;102687.75;5270920;28;20031;-70
2021/12/20 11:32:58;;;;;;;17.65;3.75;;;;;;;6.20;86.41;102689.41;5268948;28;20346;-70
2021/12/20 11:35:30;;;;;;;16.73;3.40;;;;;;;6.18;84.72;102685.94;5266277;28;20055;-70
2021/12/20 11:38:02;;;;;;;15.23;2.97;;;;;;;6.19;85.22;102687.66;5265830;28;20111;-70
2021/12/20 11:40:33;;;;;;;18.35;3.60;;;;;;;6.26;87.13;102688.38;5273676;28;20038;-70
2021/12/20 11:43:04;;;;;;;14.10;3.40;;;;;;;6.30;89.08;102690.00;5271101;28;20024;-70
2021/12/20 11:45:37;;;;;;;15.25;3.30;;;;;;;6.37;86.54;102685.41;5267883;28;20090;-70
2021/12/20 11:48:13;;;;;;;21.00;3.38;;;;;;;6.29;84.20;102690.94;5267833;28;20709;-70
2021/12/20 11:50:44;;;;;;;16.58;3.60;;;;;;;6.15;83.04;102686.00;5265865;28;20026;-70
2021/12/20 11:53:17;;;;;;;19.13;3.88;;;;;;;6.08;82.95;102689.78;5264611;28;20033;-70
2021/12/20 11:55:52;;;;;;;17.50;3.22;;;;;;;6.13;85.43;102684.31;5271866;28;20375;-70
2021/12/20 11:58:30;;;;;;;16.80;3.58;;;;;;;6.07;88.01;102683.56;5269479;28;20024;-70
2021/12/20 12:01:13;;;;;;;17.65;3.72;;;;;;;5.95;86.02;102683.94;5271020;28;20323;-70
2021/12/20 12:03:56;;;;;;;21.10;3.85;;;;;;;5.96;86.60;102674.19;5266221;28;20556;-70